Princeton, Canada
Current Conditions -  °F | °C
As of 2:49 PM on Tuesday 21 Oct 2014 (Local Time) from CYDC Reporting Station
Scattered Clouds Scattered Clouds  
Wind Chill: 61°   Ceiling: Unl
Heat Index: 61°   Visibility: 15mi
Dew Point: 36°   Wind: 8mph
Humidity: 39%   Direction: 220°SW
Pressure: 29.82"   Gusts: 20mph
Location:  49.46°N, 120.5°W
Report Text: CYDC 212149Z 22007G17KT 190V260 15SM SCT050 SCT150 16/02 A2982 RMK CU4AC1 AC TR WSHFT 2132 SLP099 DENSITY ALT 3000FT
Loading
Personal Weather Stations






























Interactive Weather Map
Tropical Storm Tracking
New forecast layout! Learn more

10-Day Weather Forecast

Advertisements
Track Severe Weather on mobile